Time;durP1;ratioP1;P1;durP2;ratioP2;P2;SDS_P1;SDS_P2;PMS_P1;PMS_P2;Temp;Humidity;BMP_temperature;BMP_pressure;BME280_temperature;BME280_humidity;BME280_pressure;Samples;Min_cycle;Max_cycle;Signal;HPM_P1;HPM_P2
2022/09/20 00:01:36;;;;;;;4.23;1.50;;;24.50;67.50;;;;;;5058353;28;20192;-67
2022/09/20 00:04:05;;;;;;;7.33;1.60;;;24.40;67.90;;;;;;5071722;28;20241;-67
2022/09/20 00:06:34;;;;;;;8.43;1.70;;;24.60;67.00;;;;;;5068071;28;20180;-68
2022/09/20 00:09:02;;;;;;;8.47;1.50;;;23.90;73.60;;;;;;5071935;28;20190;-67
2022/09/20 00:11:33;;;;;;;1.80;1.07;;;23.80;72.70;;;;;;5072139;28;20190;-67
2022/09/20 00:14:02;;;;;;;3.10;1.20;;;24.00;75.00;;;;;;5071725;28;20298;-68
2022/09/20 00:16:34;;;;;;;8.93;1.50;;;23.90;73.50;;;;;;5071858;28;20183;-66
2022/09/20 00:19:03;;;;;;;6.57;1.33;;;23.90;80.20;;;;;;5071271;28;20198;-67
2022/09/20 00:21:33;;;;;;;4.10;1.00;;;24.30;83.70;;;;;;5072138;28;20179;-66
2022/09/20 00:24:01;;;;;;;3.47;0.87;;;24.40;81.60;;;;;;5071734;28;20282;-68
2022/09/20 00:26:29;;;;;;;3.93;0.90;;;24.40;87.30;;;;;;5072164;28;20695;-68
2022/09/20 00:28:59;;;;;;;4.10;1.10;;;24.50;77.50;;;;;;5071660;28;20622;-68
2022/09/20 00:31:27;;;;;;;6.17;1.40;;;24.10;80.40;;;;;;5071984;28;20179;-68
2022/09/20 00:36:42;;;;;;;5.60;1.23;;;23.50;85.10;;;;;;5072119;28;20241;-66
2022/09/20 00:39:13;;;;;;;6.87;1.40;;;23.50;86.90;;;;;;5071620;28;20574;-66
2022/09/20 00:41:40;;;;;;;6.93;1.30;;;23.90;86.30;;;;;;5071674;28;20188;-66
2022/09/20 00:44:44;;;;;;;2.90;1.27;;;24.50;85.70;;;;;;5071636;28;20186;-66
2022/09/20 00:47:32;;;;;;;5.37;1.17;;;25.00;72.30;;;;;;5071712;28;20194;-69
2022/09/20 00:50:14;;;;;;;6.03;1.43;;;25.00;73.10;;;;;;5051702;28;20180;-66
2022/09/20 00:52:45;;;;;;;4.63;1.47;;;25.20;76.00;;;;;;5050433;28;20194;-66
2022/09/20 00:55:14;;;;;;;5.57;1.63;;;25.40;73.90;;;;;;5051628;28;20585;-67
2022/09/20 00:57:44;;;;;;;4.00;1.30;;;24.50;73.00;;;;;;5056920;28;20201;-67
2022/09/20 01:00:13;;;;;;;1.97;0.87;;;24.50;74.40;;;;;;5071105;28;20218;-68
2022/09/20 01:02:48;;;;;;;3.57;1.00;;;24.40;77.40;;;;;;5071672;28;20179;-67
2022/09/20 01:05:17;;;;;;;4.37;1.10;;;24.90;85.90;;;;;;5071504;28;20237;-67
2022/09/20 01:07:48;;;;;;;5.90;1.40;;;25.00;75.60;;;;;;5071228;28;20676;-67
2022/09/20 01:10:16;;;;;;;6.97;1.10;;;25.20;73.90;;;;;;5066692;28;20183;-65
2022/09/20 01:12:45;;;;;;;3.20;1.07;;;25.20;68.90;;;;;;5056819;28;20718;-66
2022/09/20 01:15:14;;;;;;;7.03;1.00;;;25.30;73.50;;;;;;5051430;28;20230;-66
2022/09/20 01:17:47;;;;;;;2.50;0.87;;;25.90;69.60;;;;;;5062663;28;20176;-66
2022/09/20 01:20:28;;;;;;;2.77;0.90;;;26.40;62.50;;;;;;5068019;28;20851;-68
2022/09/20 01:23:11;;;;;;;6.27;1.37;;;25.70;71.60;;;;;;5070526;28;20184;-67
2022/09/20 01:26:06;;;;;;;6.67;1.40;;;25.50;67.10;;;;;;5071156;28;20288;-67
2022/09/20 01:28:34;;;;;;;3.67;1.43;;;25.60;66.10;;;;;;5054031;28;20180;-67
2022/09/20 01:31:25;;;;;;;4.77;1.10;;;24.70;69.70;;;;;;5070568;28;20203;-67
2022/09/20 01:34:00;;;;;;;5.67;1.07;;;24.30;70.00;;;;;;5069793;28;20218;-68
2022/09/20 01:36:44;;;;;;;5.97;1.30;;;23.80;79.30;;;;;;5074837;28;20280;-71
2022/09/20 01:39:50;;;;;;;4.43;1.20;;;24.10;80.60;;;;;;5075327;28;20211;-69
2022/09/20 01:42:18;;;;;;;5.83;1.40;;;23.60;85.40;;;;;;5039485;28;20650;-67
2022/09/20 01:45:10;;;;;;;7.30;1.20;;;23.50;91.00;;;;;;5054880;28;20195;-67
2022/09/20 01:47:43;;;;;;;2.97;1.10;;;23.40;90.20;;;;;;5062480;28;20585;-68
2022/09/20 01:50:44;;;;;;;2.63;1.10;;;22.90;90.40;;;;;;5074840;28;20266;-68
2022/09/20 01:53:48;;;;;;;1.77;0.77;;;23.10;92.30;;;;;;5074946;28;20282;-70
2022/09/20 01:56:28;;;;;;;5.63;1.10;;;23.70;92.90;;;;;;5074878;28;20242;-69
2022/09/20 01:59:21;;;;;;;4.73;0.90;;;22.90;92.20;;;;;;5074652;28;20191;-68
2022/09/20 02:01:51;;;;;;;3.80;0.87;;;22.00;94.70;;;;;;5074354;28;20213;-70
2022/09/20 02:04:52;;;;;;;4.40;1.20;;;23.10;99.90;;;;;;5074778;28;20254;-68
2022/09/20 02:07:44;;;;;;;4.63;1.00;;;23.40;92.40;;;;;;5072878;28;20179;-69
2022/09/20 02:10:22;;;;;;;7.83;1.00;;;23.30;92.10;;;;;;5074617;28;20182;-67
2022/09/20 02:12:58;;;;;;;3.33;1.03;;;22.40;94.60;;;;;;5074673;28;20256;-67
2022/09/20 02:15:41;;;;;;;4.10;1.00;;;22.20;97.80;;;;;;5074188;28;20211;-67
2022/09/20 02:18:39;;;;;;;2.40;1.40;;;22.40;99.90;;;;;;5054848;28;20541;-69
2022/09/20 02:21:19;;;;;;;3.30;1.10;;;22.30;99.90;;;;;;5053417;28;20187;-69
2022/09/20 02:23:56;;;;;;;3.50;1.53;;;22.00;99.90;;;;;;5063708;28;20189;-70
2022/09/20 02:26:48;;;;;;;3.97;1.00;;;22.20;99.90;;;;;;5080523;28;20195;-69
2022/09/20 02:29:46;;;;;;;3.67;1.00;;;22.70;99.90;;;;;;5081375;28;20216;-68
2022/09/20 02:32:42;;;;;;;4.80;1.30;;;22.30;99.90;;;;;;5074263;28;20968;-69
2022/09/20 02:35:48;;;;;;;3.20;1.20;;;22.00;99.90;;;;;;5074032;28;20265;-67
2022/09/20 02:38:57;;;;;;;8.40;1.30;;;21.90;99.90;;;;;;5054048;28;20192;-67
2022/09/20 02:41:42;;;;;;;3.67;1.00;;;21.80;99.90;;;;;;5053250;28;20234;-69
2022/09/20 02:44:27;;;;;;;3.87;1.47;;;21.80;99.90;;;;;;5058795;28;20783;-68
2022/09/20 02:47:12;;;;;;;2.40;1.20;;;21.50;99.90;;;;;;5073672;28;20725;-67
2022/09/20 02:50:18;;;;;;;3.60;1.13;;;21.40;99.90;;;;;;5073962;28;20585;-67
2022/09/20 02:53:06;;;;;;;3.73;1.20;;;21.10;99.90;;;;;;5071160;28;20673;-68
2022/09/20 02:55:52;;;;;;;6.37;1.60;;;21.00;99.90;;;;;;5073600;28;20291;-68
2022/09/20 02:58:57;;;;;;;3.63;1.30;;;20.80;99.90;;;;;;5053695;28;20670;-68
2022/09/20 03:01:33;;;;;;;5.00;1.10;;;21.20;99.90;;;;;;4991984;28;20190;-69
2022/09/20 03:04:13;;;;;;;2.60;1.00;;;22.00;99.90;;;;;;4992269;28;20215;-68
2022/09/20 03:06:51;;;;;;;3.30;0.87;;;23.50;99.90;;;;;;5042101;28;20244;-71
2022/09/20 03:10:06;;;;;;;5.80;1.23;;;24.80;99.90;;;;;;5073417;28;20213;-68
2022/09/20 03:13:02;;;;;;;2.33;0.90;;;25.40;99.90;;;;;;5011419;28;20189;-70
2022/09/20 03:15:47;;;;;;;4.77;1.03;;;24.60;94.70;;;;;;4994400;28;20241;-69
2022/09/20 03:18:31;;;;;;;5.53;1.30;;;24.00;94.90;;;;;;5061175;28;20201;-68
2022/09/20 03:21:38;;;;;;;7.53;1.40;;;23.90;96.80;;;;;;5073455;28;20660;-72
2022/09/20 03:24:41;;;;;;;5.27;1.20;;;23.30;97.90;;;;;;5072824;28;20205;-68
2022/09/20 03:27:28;;;;;;;5.17;1.27;;;22.80;99.90;;;;;;5072805;28;20630;-68
2022/09/20 03:30:20;;;;;;;5.73;0.80;;;23.10;99.90;;;;;;5073229;28;20189;-69
2022/09/20 03:33:08;;;;;;;7.63;1.20;;;23.60;99.90;;;;;;5073115;28;20174;-68
2022/09/20 03:36:07;;;;;;;2.20;0.87;;;23.40;97.60;;;;;;5056016;28;20223;-68
2022/09/20 03:39:15;;;;;;;2.53;1.30;;;23.60;95.90;;;;;;5072974;28;20180;-68
2022/09/20 03:41:52;;;;;;;4.53;1.50;;;23.70;98.40;;;;;;5067993;28;20207;-68
2022/09/20 03:44:39;;;;;;;5.07;0.97;;;24.00;95.80;;;;;;5064295;28;20178;-69
2022/09/20 03:47:41;;;;;;;2.27;1.20;;;23.80;97.20;;;;;;5071744;28;20183;-69
2022/09/20 03:50:42;;;;;;;3.60;0.90;;;23.60;97.60;;;;;;5070505;28;20726;-70
2022/09/20 03:53:27;;;;;;;5.10;1.10;;;23.40;95.60;;;;;;5051760;28;20204;-68
2022/09/20 03:56:13;;;;;;;3.97;1.33;;;22.30;99.90;;;;;;5068655;28;20245;-68
2022/09/20 03:58:59;;;;;;;2.63;1.00;;;22.40;99.90;;;;;;5072505;28;20203;-69
2022/09/20 04:01:50;;;;;;;7.67;0.93;;;22.90;99.90;;;;;;5072275;28;20590;-67
2022/09/20 04:04:44;;;;;;;4.10;1.20;;;23.30;96.90;;;;;;5072176;28;20180;-70
2022/09/20 04:07:11;;;;;;;3.57;1.10;;;23.80;94.40;;;;;;5072234;28;20191;-69
2022/09/20 04:09:57;;;;;;;2.50;0.80;;;23.30;97.00;;;;;;5071967;28;20206;-69
2022/09/20 04:12:50;;;;;;;5.33;1.20;;;23.00;96.60;;;;;;5071726;28;20172;-69
2022/09/20 04:15:44;;;;;;;3.40;1.17;;;22.60;99.90;;;;;;5071869;28;20302;-69
2022/09/20 04:18:33;;;;;;;5.83;0.97;;;22.60;97.00;;;;;;5070733;28;20188;-70
2022/09/20 04:21:30;;;;;;;1.47;0.80;;;22.40;99.20;;;;;;5072106;28;20187;-70
2022/09/20 04:24:22;;;;;;;3.03;0.90;;;22.90;99.90;;;;;;5069996;28;20649;-68
2022/09/20 04:27:03;;;;;;;2.47;0.93;;;23.50;98.30;;;;;;5071606;28;20357;-69
2022/09/20 04:30:11;;;;;;;2.67;1.00;;;24.00;94.60;;;;;;5071909;28;20632;-69
2022/09/20 04:32:45;;;;;;;3.83;1.10;;;24.10;84.90;;;;;;5051205;28;20195;-68
2022/09/20 04:38:28;;;;;;;6.03;1.30;;;24.20;91.00;;;;;;5051919;28;20264;-68
2022/09/20 04:41:18;;;;;;;3.90;1.30;;;24.50;90.50;;;;;;5070045;28;20195;-67
2022/09/20 04:44:26;;;;;;;3.47;0.90;;;24.50;92.20;;;;;;5067040;28;20196;-68
2022/09/20 04:47:12;;;;;;;2.93;1.10;;;24.40;86.20;;;;;;5069222;28;20198;-68
2022/09/20 04:49:45;;;;;;;4.50;1.00;;;24.50;90.50;;;;;;5070746;28;20262;-67
2022/09/20 04:52:58;;;;;;;5.30;1.33;;;24.50;92.10;;;;;;5071673;28;20176;-68
2022/09/20 04:55:46;;;;;;;4.60;1.23;;;24.60;93.10;;;;;;5051626;28;20227;-69
2022/09/20 04:58:38;;;;;;;5.30;1.13;;;24.40;78.70;;;;;;5051808;28;20186;-69
2022/09/20 05:01:38;;;;;;;2.47;1.00;;;24.30;82.10;;;;;;5051781;28;20179;-69
2022/09/20 05:04:27;;;;;;;1.60;0.80;;;24.50;90.60;;;;;;5058823;28;20187;-68
2022/09/20 05:07:30;;;;;;;3.10;1.30;;;24.60;90.40;;;;;;5071293;28;20197;-69
2022/09/20 05:10:06;;;;;;;4.43;1.40;;;24.60;92.60;;;;;;5071489;28;20675;-67
2022/09/20 05:12:55;;;;;;;4.10;0.97;;;24.80;99.90;;;;;;5071187;28;20716;-67
2022/09/20 05:15:33;;;;;;;7.07;1.20;;;24.40;99.90;;;;;;5071190;28;20219;-67
2022/09/20 05:18:09;;;;;;;3.37;1.40;;;24.40;99.90;;;;;;5071538;28;20175;-66
2022/09/20 05:20:58;;;;;;;7.53;1.30;;;24.50;99.90;;;;;;5071346;28;20183;-65
2022/09/20 05:24:02;;;;;;;7.87;1.20;;;24.10;99.90;;;;;;5071167;28;20215;-67
2022/09/20 05:26:38;;;;;;;3.47;1.10;;;23.40;99.90;;;;;;5064735;28;20197;-67
2022/09/20 05:29:36;;;;;;;6.43;1.93;;;23.10;99.90;;;;;;5071435;28;20243;-67
2022/09/20 05:32:36;;;;;;;5.43;1.20;;;23.10;99.90;;;;;;5070652;28;20320;-67
2022/09/20 05:35:22;;;;;;;4.73;1.10;;;22.80;99.90;;;;;;5059360;28;20220;-66
2022/09/20 05:38:17;;;;;;;7.03;1.30;;;22.30;99.90;;;;;;5071388;28;20179;-67
2022/09/20 05:41:17;;;;;;;6.30;1.10;;;22.10;99.90;;;;;;5071123;28;20403;-66
2022/09/20 05:44:23;;;;;;;3.63;1.00;;;22.00;99.90;;;;;;5070981;28;20195;-68
2022/09/20 05:47:15;;;;;;;2.87;0.93;;;22.10;99.90;;;;;;5055349;28;20191;-67
2022/09/20 05:50:03;;;;;;;4.97;1.40;;;21.90;99.90;;;;;;5067931;28;20542;-67
2022/09/20 05:53:01;;;;;;;6.47;1.03;;;21.90;99.90;;;;;;5071024;28;20645;-67
2022/09/20 05:55:47;;;;;;;6.30;1.20;;;22.00;99.90;;;;;;5070771;28;20215;-66
2022/09/20 05:58:26;;;;;;;5.30;1.50;;;22.00;99.90;;;;;;5070822;28;20206;-66
2022/09/20 06:00:59;;;;;;;4.50;1.30;;;22.20;99.90;;;;;;5070526;28;20599;-66
2022/09/20 06:03:42;;;;;;;7.50;1.30;;;22.00;99.90;;;;;;5055063;28;20180;-68
2022/09/20 06:06:30;;;;;;;6.33;1.40;;;22.00;99.90;;;;;;5070426;28;20182;-66
2022/09/20 06:09:07;;;;;;;4.27;1.00;;;21.80;99.90;;;;;;5070619;28;20634;-68
2022/09/20 06:11:58;;;;;;;5.20;1.33;;;21.80;99.90;;;;;;5069969;28;20191;-66
2022/09/20 06:15:13;;;;;;;7.07;1.30;;;21.50;99.90;;;;;;5071065;28;20215;-66
2022/09/20 06:18:08;;;;;;;6.73;1.63;;;21.40;99.90;;;;;;4995973;28;20241;-67
2022/09/20 06:20:57;;;;;;;5.20;1.43;;;21.00;99.90;;;;;;5074245;28;20599;-68
2022/09/20 06:23:26;;;;;;;4.40;1.17;;;20.90;99.90;;;;;;5074076;28;20183;-66
2022/09/20 06:26:05;;;;;;;10.07;1.67;;;20.70;99.90;;;;;;5072508;28;20260;-67
2022/09/20 06:28:46;;;;;;;7.67;1.53;;;20.70;99.90;;;;;;5054325;28;20230;-67
2022/09/20 06:31:14;;;;;;;7.57;2.10;;;20.60;99.90;;;;;;5054490;28;20483;-67
2022/09/20 06:33:58;;;;;;;4.97;1.27;;;20.50;99.90;;;;;;5068799;28;20207;-67
2022/09/20 06:42:43;;;;;;;6.93;1.43;;;20.40;99.90;;;;;;5019007;28;20713;-67
2022/09/20 06:45:14;;;;;;;10.50;1.50;;;20.40;99.90;;;;;;5074058;28;20176;-66
2022/09/20 06:47:42;;;;;;;5.93;1.57;;;20.40;99.90;;;;;;5072643;28;20188;-68
2022/09/20 06:50:16;;;;;;;7.10;1.23;;;20.50;99.90;;;;;;5073694;28;20661;-67
2022/09/20 06:52:45;;;;;;;7.27;1.70;;;20.50;99.90;;;;;;5073506;28;20223;-67
2022/09/20 06:55:23;;;;;;;4.77;1.37;;;20.30;99.90;;;;;;5073893;28;20208;-67
2022/09/20 06:57:51;;;;;;;6.93;1.40;;;20.20;99.90;;;;;;5073683;28;20181;-67
2022/09/20 07:00:19;;;;;;;6.57;1.10;;;20.20;99.90;;;;;;5073889;28;20180;-66
2022/09/20 07:02:47;;;;;;;8.27;1.90;;;20.10;99.90;;;;;;5072973;28;20177;-67
2022/09/20 07:05:16;;;;;;;5.37;1.20;;;19.90;99.90;;;;;;5064308;28;20259;-67
2022/09/20 07:07:46;;;;;;;6.37;1.30;;;19.60;99.90;;;;;;5073425;28;20258;-67
2022/09/20 07:10:18;;;;;;;5.93;1.10;;;19.40;99.90;;;;;;5073778;28;20290;-67
2022/09/20 07:12:45;;;;;;;8.90;1.77;;;19.20;99.90;;;;;;5071793;28;20684;-66
2022/09/20 07:15:13;;;;;;;6.83;1.70;;;19.10;99.90;;;;;;5071546;28;20720;-68
2022/09/20 07:17:44;;;;;;;7.37;1.47;;;19.00;99.90;;;;;;5073472;28;20175;-67
2022/09/20 07:20:12;;;;;;;6.70;1.47;;;18.90;99.90;;;;;;5072009;28;20184;-67
2022/09/20 07:22:40;;;;;;;6.23;1.37;;;18.80;99.90;;;;;;5071716;28;20268;-68
2022/09/20 07:25:10;;;;;;;8.27;1.50;;;18.70;99.90;;;;;;5073020;28;20236;-67
2022/09/20 07:27:38;;;;;;;10.63;1.77;;;18.60;99.90;;;;;;5071832;28;20195;-69
2022/09/20 07:30:11;;;;;;;10.90;1.70;;;18.50;99.90;;;;;;5063196;28;20196;-67
2022/09/20 07:32:41;;;;;;;5.67;1.50;;;18.50;99.90;;;;;;5060184;28;20179;-68
2022/09/20 07:35:12;;;;;;;10.37;1.60;;;18.40;99.90;;;;;;5073043;28;20707;-66
2022/09/20 07:37:41;;;;;;;9.27;1.70;;;18.30;99.90;;;;;;5055621;28;20259;-67
2022/09/20 07:40:13;;;;;;;4.50;1.27;;;18.20;99.90;;;;;;5072916;28;20179;-66
2022/09/20 07:42:41;;;;;;;8.40;1.63;;;18.20;99.90;;;;;;5072533;28;20224;-66
2022/09/20 07:45:15;;;;;;;9.40;2.10;;;18.10;99.90;;;;;;5072487;28;20655;-67
2022/09/20 07:47:52;;;;;;;9.20;2.03;;;18.10;99.90;;;;;;5055988;28;20248;-68
2022/09/20 07:50:23;;;;;;;7.73;1.57;;;18.00;99.90;;;;;;5072579;28;20633;-66
2022/09/20 07:52:55;;;;;;;15.80;2.43;;;18.00;99.90;;;;;;5072021;28;20180;-66
2022/09/20 07:55:22;;;;;;;5.23;1.50;;;17.90;99.90;;;;;;5071627;28;20245;-66
2022/09/20 07:57:50;;;;;;;11.20;1.67;;;17.80;99.90;;;;;;5072442;28;20194;-67
2022/09/20 08:00:21;;;;;;;8.73;1.53;;;17.80;99.90;;;;;;5062386;28;20257;-68
2022/09/20 08:02:57;;;;;;;7.30;1.20;;;17.70;99.90;;;;;;5063922;28;20187;-67
2022/09/20 08:05:29;;;;;;;12.47;2.13;;;17.60;99.90;;;;;;5060774;28;20181;-68
2022/09/20 08:07:59;;;;;;;13.73;2.47;;;17.60;99.90;;;;;;5052458;28;20270;-67
2022/09/20 08:10:28;;;;;;;5.50;1.37;;;17.50;99.90;;;;;;5063881;28;20175;-67
2022/09/20 08:12:58;;;;;;;14.97;2.60;;;17.50;99.90;;;;;;5072127;28;20585;-67
2022/09/20 08:15:26;;;;;;;11.83;1.87;;;17.50;99.90;;;;;;5072294;28;20556;-65
2022/09/20 08:17:58;;;;;;;11.07;2.10;;;17.40;99.90;;;;;;5070513;28;20638;-67
2022/09/20 08:20:26;;;;;;;4.57;1.47;;;17.30;99.90;;;;;;5071717;28;20661;-67
2022/09/20 08:23:00;;;;;;;7.13;1.83;;;17.30;99.90;;;;;;5070466;28;20196;-66
2022/09/20 08:25:28;;;;;;;12.30;2.00;;;17.30;99.90;;;;;;5071824;28;20314;-67
2022/09/20 08:27:59;;;;;;;9.03;1.53;;;17.20;99.90;;;;;;5052067;28;20189;-67
2022/09/20 08:30:28;;;;;;;7.10;2.00;;;17.10;99.90;;;;;;5061013;28;20184;-66
2022/09/20 08:32:58;;;;;;;8.70;1.60;;;17.10;99.90;;;;;;5072394;28;20668;-67
2022/09/20 08:35:28;;;;;;;7.40;1.70;;;17.10;99.90;;;;;;5071834;28;20223;-67
2022/09/20 08:38:01;;;;;;;9.43;1.90;;;17.00;99.90;;;;;;5072063;28;20255;-66
2022/09/20 08:40:32;;;;;;;8.30;1.80;;;17.00;99.90;;;;;;5072496;28;20206;-68
2022/09/20 08:43:01;;;;;;;7.50;1.73;;;16.90;99.90;;;;;;5071759;28;20202;-67
2022/09/20 08:45:34;;;;;;;8.43;2.07;;;16.80;99.90;;;;;;5073554;28;20187;-67
2022/09/20 08:48:06;;;;;;;7.20;1.60;;;16.80;99.90;;;;;;5073414;28;20172;-70
2022/09/20 08:50:40;;;;;;;11.33;2.03;;;16.70;99.90;;;;;;5073387;28;20179;-67
2022/09/20 08:53:14;;;;;;;7.73;1.70;;;16.70;99.90;;;;;;5072191;28;20706;-70
2022/09/20 08:55:47;;;;;;;8.47;2.07;;;16.60;99.90;;;;;;5072971;28;20783;-68
2022/09/20 08:58:18;;;;;;;8.50;1.60;;;16.60;99.90;;;;;;5069880;28;20261;-66
2022/09/20 09:00:47;;;;;;;9.83;2.00;;;16.60;99.90;;;;;;5073120;28;20184;-67
2022/09/20 09:03:17;;;;;;;7.00;1.80;;;16.50;99.90;;;;;;5072991;28;20244;-66
2022/09/20 09:05:54;;;;;;;6.13;2.23;;;16.40;99.90;;;;;;5073203;28;20191;-69
2022/09/20 09:08:31;;;;;;;8.73;2.27;;;16.30;99.90;;;;;;5070350;28;20208;-66
2022/09/20 09:11:08;;;;;;;6.40;2.17;;;16.30;99.90;;;;;;5073259;28;20183;-67
2022/09/20 09:13:56;;;;;;;10.80;2.00;;;16.20;99.90;;;;;;5073059;28;20182;-68
2022/09/20 09:16:29;;;;;;;7.20;1.70;;;16.30;99.90;;;;;;5073166;28;20184;-67
2022/09/20 09:19:45;;;;;;;5.17;1.60;;;16.30;99.90;;;;;;5072884;28;20224;-68
2022/09/20 09:22:34;;;;;;;6.87;1.73;;;16.30;99.90;;;;;;5071854;28;20249;-68
2022/09/20 09:25:15;;;;;;;8.73;1.83;;;16.20;99.90;;;;;;5072473;28;20712;-67
2022/09/20 09:28:00;;;;;;;6.73;1.63;;;16.20;99.90;;;;;;5072645;28;20631;-68
2022/09/20 09:30:36;;;;;;;5.97;1.57;;;16.20;99.90;;;;;;5072893;28;20237;-67
2022/09/20 09:33:29;;;;;;;11.37;2.37;;;16.10;99.90;;;;;;5072820;28;20837;-67
2022/09/20 09:35:59;;;;;;;8.17;1.90;;;16.20;99.90;;;;;;5072068;28;20202;-67
2022/09/20 09:38:30;;;;;;;5.47;2.20;;;16.20;99.90;;;;;;5072906;28;20225;-67
2022/09/20 09:41:00;;;;;;;6.17;1.90;;;16.10;99.90;;;;;;5072932;28;20176;-67
2022/09/20 09:43:34;;;;;;;7.10;1.70;;;16.10;99.90;;;;;;5072485;28;21271;-68
2022/09/20 09:46:21;;;;;;;4.63;1.50;;;16.10;99.90;;;;;;5072850;28;20201;-66
2022/09/20 09:49:18;;;;;;;11.53;2.00;;;16.00;99.90;;;;;;5072771;28;20261;-67
2022/09/20 09:52:14;;;;;;;9.23;1.70;;;16.10;99.90;;;;;;5075778;28;20186;-68
2022/09/20 09:54:58;;;;;;;12.57;2.07;;;16.10;99.90;;;;;;5056438;28;20213;-67
2022/09/20 09:57:50;;;;;;;10.50;1.93;;;16.10;99.90;;;;;;5075438;28;20180;-68
2022/09/20 10:00:25;;;;;;;5.70;1.93;;;15.90;99.90;;;;;;5076652;28;20193;-67
2022/09/20 10:03:12;;;;;;;8.33;1.70;;;16.00;99.90;;;;;;5076237;28;20535;-67
2022/09/20 10:06:10;;;;;;;5.17;1.33;;;16.00;99.90;;;;;;5076291;28;20516;-68
2022/09/20 10:09:03;;;;;;;11.07;1.90;;;15.90;99.90;;;;;;5076053;28;20184;-67
2022/09/20 10:11:35;;;;;;;8.43;2.40;;;15.80;99.90;;;;;;5076430;28;20183;-67
2022/09/20 10:14:12;;;;;;;10.37;2.03;;;15.70;99.90;;;;;;5076060;28;20206;-67
2022/09/20 10:17:16;;;;;;;10.03;2.50;;;15.70;99.90;;;;;;5074702;28;20191;-68
2022/09/20 10:20:17;;;;;;;7.20;2.07;;;15.70;99.90;;;;;;5075937;28;20233;-68
2022/09/20 10:23:12;;;;;;;7.90;2.57;;;15.60;99.90;;;;;;5076294;28;20180;-68
2022/09/20 10:25:48;;;;;;;6.50;1.83;;;15.50;99.90;;;;;;5075423;28;20258;-68
2022/09/20 10:28:31;;;;;;;8.63;2.17;;;15.50;99.90;;;;;;5076086;28;20193;-67
2022/09/20 10:31:08;;;;;;;8.63;2.23;;;15.50;99.90;;;;;;5075227;28;20218;-68
2022/09/20 10:34:10;;;;;;;12.53;2.17;;;15.50;99.90;;;;;;5075216;28;20189;-68
2022/09/20 10:37:00;;;;;;;7.50;2.40;;;15.50;99.90;;;;;;5048015;28;20198;-68
2022/09/20 10:39:47;;;;;;;13.37;1.83;;;15.50;99.90;;;;;;5075838;28;20224;-68
2022/09/20 10:45:37;;;;;;;5.20;2.17;;;15.50;99.90;;;;;;5066039;28;20197;-67
2022/09/20 10:48:50;;;;;;;7.73;1.90;;;15.50;99.90;;;;;;5063516;28;20229;-68
2022/09/20 10:51:38;;;;;;;8.43;1.80;;;15.50;99.90;;;;;;5055553;28;20191;-68
2022/09/20 10:54:14;;;;;;;7.10;1.93;;;15.40;99.90;;;;;;5055250;28;20672;-68
2022/09/20 10:57:05;;;;;;;3.23;1.53;;;15.30;99.90;;;;;;5068005;28;20649;-67
2022/09/20 11:00:09;;;;;;;8.13;2.40;;;15.10;99.90;;;;;;5061263;28;20714;-68
2022/09/20 11:02:42;;;;;;;8.07;2.00;;;15.10;99.90;;;;;;5058733;28;20308;-69
2022/09/20 11:05:24;;;;;;;8.47;2.23;;;15.00;99.90;;;;;;5070820;28;20193;-67
2022/09/20 11:07:58;;;;;;;11.43;2.30;;;15.00;99.90;;;;;;5064079;28;20855;-67
2022/09/20 11:10:46;;;;;;;8.50;2.47;;;14.90;99.90;;;;;;5065018;28;20194;-69
2022/09/20 11:13:23;;;;;;;7.80;2.20;;;14.80;99.90;;;;;;5064863;28;20626;-66
2022/09/20 11:16:24;;;;;;;10.90;2.00;;;14.70;99.90;;;;;;5062953;28;20215;-67
2022/09/20 11:19:15;;;;;;;5.40;2.00;;;14.60;99.90;;;;;;5063034;28;20182;-67
2022/09/20 11:21:54;;;;;;;5.93;1.90;;;14.60;99.90;;;;;;5064166;28;20711;-67
2022/09/20 11:24:51;;;;;;;8.57;2.07;;;14.50;99.90;;;;;;5063793;28;20178;-67
2022/09/20 11:27:50;;;;;;;5.53;2.47;;;14.40;99.90;;;;;;5066828;28;20217;-67
2022/09/20 11:30:19;;;;;;;5.63;2.00;;;14.40;99.90;;;;;;5074840;28;20180;-67
2022/09/20 11:32:56;;;;;;;5.97;2.17;;;14.40;99.90;;;;;;5075006;28;20193;-66
2022/09/20 11:35:38;;;;;;;9.13;2.20;;;14.20;99.90;;;;;;5074901;28;20259;-68
2022/09/20 11:38:05;;;;;;;7.67;2.30;;;14.20;99.90;;;;;;5073677;28;20183;-67
2022/09/20 11:40:51;;;;;;;10.40;2.20;;;14.10;99.90;;;;;;5074759;28;20547;-66
2022/09/20 11:43:22;;;;;;;9.07;2.60;;;14.20;99.90;;;;;;5073917;28;20273;-68
2022/09/20 11:45:56;;;;;;;7.97;2.23;;;14.10;99.90;;;;;;5073123;28;20286;-67
2022/09/20 11:48:35;;;;;;;8.40;2.00;;;14.10;99.90;;;;;;5073418;28;20188;-68
2022/09/20 11:51:50;;;;;;;11.60;2.37;;;14.00;99.90;;;;;;5074416;28;20308;-66
2022/09/20 11:54:47;;;;;;;8.87;2.50;;;14.00;99.90;;;;;;5074219;28;20741;-67
2022/09/20 11:57:16;;;;;;;5.33;2.10;;;14.00;99.90;;;;;;5073974;28;20190;-68
2022/09/20 11:59:54;;;;;;;5.80;2.20;;;13.90;99.90;;;;;;5074031;28;20688;-67
2022/09/20 12:02:46;;;;;;;9.07;2.60;;;13.80;99.90;;;;;;5073888;28;20181;-69
2022/09/20 12:05:34;;;;;;;9.53;2.43;;;13.80;99.90;;;;;;5074097;28;20191;-67
2022/09/20 12:08:07;;;;;;;5.63;2.27;;;13.70;99.90;;;;;;5054226;28;20180;-68
2022/09/20 12:10:38;;;;;;;8.13;2.00;;;13.60;99.90;;;;;;5054246;28;20175;-67
2022/09/20 12:13:27;;;;;;;7.87;2.53;;;13.60;99.90;;;;;;5067312;28;20226;-66
2022/09/20 12:16:07;;;;;;;6.67;2.20;;;13.50;99.90;;;;;;5074002;28;20214;-68
2022/09/20 12:18:34;;;;;;;10.87;2.93;;;13.50;99.90;;;;;;5073520;28;20173;-68
2022/09/20 12:21:18;;;;;;;5.97;2.47;;;13.40;99.90;;;;;;5074142;28;20177;-66
2022/09/20 12:23:53;;;;;;;12.70;2.73;;;13.30;99.90;;;;;;5072454;28;20184;-67
2022/09/20 12:26:37;;;;;;;6.30;2.60;;;13.30;99.90;;;;;;5073435;28;20216;-67
2022/09/20 12:29:34;;;;;;;9.87;2.57;;;13.30;99.90;;;;;;5072341;28;20548;-68
2022/09/20 12:32:22;;;;;;;5.37;2.20;;;13.30;99.90;;;;;;5020622;28;20190;-68
2022/09/20 12:34:51;;;;;;;9.23;2.73;;;13.20;99.90;;;;;;5072907;28;20221;-67
2022/09/20 12:37:24;;;;;;;5.77;2.33;;;13.30;99.90;;;;;;5073842;28;20168;-67
2022/09/20 12:39:54;;;;;;;4.57;2.10;;;13.30;99.90;;;;;;5073003;28;20193;-67
2022/09/20 12:42:32;;;;;;;8.10;2.77;;;13.30;99.90;;;;;;5073225;28;20181;-66
2022/09/20 12:45:06;;;;;;;9.97;2.27;;;13.20;99.90;;;;;;5073474;28;20513;-67
2022/09/20 12:47:37;;;;;;;10.00;2.70;;;13.20;99.90;;;;;;5073322;28;20258;-66
2022/09/20 12:53:06;;;;;;;6.77;2.90;;;13.10;99.90;;;;;;5073018;28;20315;-66
2022/09/20 12:55:51;;;;;;;8.03;2.00;;;13.00;99.90;;;;;;5071955;28;20225;-68
2022/09/20 12:58:36;;;;;;;7.57;2.60;;;13.00;99.90;;;;;;5073165;28;20635;-67
2022/09/20 13:01:04;;;;;;;8.73;2.27;;;13.00;99.90;;;;;;5073711;28;20174;-66
2022/09/20 13:03:40;;;;;;;9.27;2.30;;;13.00;99.90;;;;;;5053485;28;20176;-66
2022/09/20 13:06:11;;;;;;;11.30;2.50;;;12.90;99.90;;;;;;5053048;28;20228;-67
2022/09/20 13:08:53;;;;;;;13.37;3.13;;;12.80;99.90;;;;;;5055661;28;20215;-66
2022/09/20 13:11:40;;;;;;;12.37;2.50;;;12.80;99.90;;;;;;5071769;28;20172;-68
2022/09/20 13:14:31;;;;;;;6.37;1.80;;;12.70;99.90;;;;;;5071668;28;20200;-67
2022/09/20 13:17:02;;;;;;;8.40;2.80;;;12.70;99.90;;;;;;5073206;28;20719;-67
2022/09/20 13:19:49;;;;;;;8.93;2.50;;;12.60;99.90;;;;;;5073229;28;20651;-67
2022/09/20 13:22:44;;;;;;;9.33;2.57;;;12.60;99.90;;;;;;5073032;28;20673;-67
2022/09/20 13:25:15;;;;;;;9.33;2.90;;;12.50;99.90;;;;;;5054178;28;20241;-68
2022/09/20 13:27:55;;;;;;;6.93;2.20;;;12.40;99.90;;;;;;5069425;28;20184;-68
2022/09/20 13:30:31;;;;;;;5.30;2.17;;;12.40;99.90;;;;;;5076996;28;20190;-68
2022/09/20 13:33:25;;;;;;;9.43;2.60;;;12.40;99.90;;;;;;5077123;28;20177;-67
2022/09/20 13:35:55;;;;;;;7.00;2.17;;;12.30;99.90;;;;;;5077189;28;20224;-68
2022/09/20 13:38:28;;;;;;;6.23;2.47;;;12.30;99.90;;;;;;5076899;28;20192;-67
2022/09/20 13:41:08;;;;;;;9.83;2.33;;;12.30;99.90;;;;;;5076941;28;20188;-67
2022/09/20 13:43:44;;;;;;;8.53;2.60;;;12.30;99.90;;;;;;5076660;28;20223;-67
2022/09/20 13:46:23;;;;;;;7.77;2.20;;;12.30;99.90;;;;;;5076443;28;20190;-67
2022/09/20 13:49:06;;;;;;;8.90;3.00;;;12.20;99.90;;;;;;5077166;28;20495;-67
2022/09/20 13:51:34;;;;;;;7.97;2.47;;;12.20;99.90;;;;;;5076937;28;20643;-67
2022/09/20 13:54:32;;;;;;;11.27;2.30;;;12.20;99.90;;;;;;5076345;28;20204;-67
2022/09/20 13:57:03;;;;;;;8.50;2.83;;;12.20;99.90;;;;;;5070652;28;20700;-67
2022/09/20 13:59:39;;;;;;;6.90;2.47;;;12.10;99.90;;;;;;5076297;28;20165;-67
2022/09/20 14:02:28;;;;;;;9.63;2.87;;;12.10;99.90;;;;;;5076434;28;20183;-67
2022/09/20 14:04:58;;;;;;;9.07;2.67;;;12.00;99.90;;;;;;5076242;28;20608;-67
2022/09/20 14:07:28;;;;;;;7.37;2.63;;;12.00;99.90;;;;;;5075782;28;20516;-66
2022/09/20 14:09:57;;;;;;;10.17;2.70;;;12.00;99.90;;;;;;5075874;28;20243;-67
2022/09/20 14:12:25;;;;;;;6.83;2.20;;;11.90;99.90;;;;;;5076166;28;20239;-67
2022/09/20 14:14:53;;;;;;;4.63;2.63;;;11.90;99.90;;;;;;5075820;28;20332;-67
2022/09/20 14:17:23;;;;;;;6.37;2.13;;;12.00;99.90;;;;;;5075944;28;20184;-67